Tiempo atmosférico en la estación meteorológica de Colmenar Viejo, Madrid (1004 m.)



Fecha
DESCASC
Temp. máxima en grados centígrados (hora)
DESCASC
Temp. mínima en grados centígrados (hora)
DESCASC
Temp. media en grados centígrados
DESCASC
Racha de viento máxima en m/sg (hora)
DESCASC
Velocidad máxima media en intervalos de 10 minutos(hora)
DESCASC
Precipitaciones diarias en mm
DESCASC
Precipitaciones de 00:00 a 06:00 en mm
DESCASC
Precipitaciones de 06:00 a 12:00 en mm
DESCASC
Precipitaciones de 12:00 a 18:00 en mm
DESCASC
Precipitaciones de 18:00 a 24:00 en mm
DESCASC
28-02-2021 10.7 (17:40) 1.9 (08:10) 6.3 12.78 (22:40) 5.83 (21:30) 0 0 0 0 0
27-02-2021 17 (16:20) 8.2 (02:50) 12.6 6.39 (12:40) 3.89 (12:40) 0 0 0 0 0
26-02-2021 13.7 (16:40) 5.9 (06:50) 9.8 10.83 (12:20) 3.61 (16:40) 0 0 0 0 0
25-02-2021 9.7 (16:00) 4 (00:00) 6.8 8.61 (11:50) 3.33 (17:30) 0 0 0 0 0
24-02-2021 11.5 (16:20) 3.6 (00:00) 7.5 14.44 (21:20) 4.72 (20:50) 0 0 0 0 0
23-02-2021 11 (16:10) 1.8 (00:00) 6.4 6.67 (16:40) 3.33 (16:50) 0 0 0 0 0
22-02-2021 9.1 (16:30) 2 (00:00) 5.6 9.17 (09:40) 4.44 (06:00) 0.1 0.1 0 0 0
21-02-2021 7.6 (17:30) 2.6 (00:00) 5.1 9.17 (05:50) 5.28 (05:50) 7.2 0 0 0.5 6.7
20-02-2021 14.5 (16:10) 5 (00:00) 9.8 11.94 (17:50) 6.11 (16:30) 0 0 0 0 0
19-02-2021 13.7 (16:10) 4.8 (00:00) 9.3 9.72 (15:30) 5.83 (16:30) 0 0 0 0 0
18-02-2021 12.5 (15:30) 5.4 (00:00) 9 10.83 (17:50) 6.39 (14:00) 0 0 0 0 0
17-02-2021 12.8 (16:00) 4.4 (00:00) 8.6 9.17 (13:00) 3.33 (12:30) 0 0 0 0 0
16-02-2021 11.5 (16:20) 3.2 (00:00) 7.4 6.39 (16:10) 4.17 (17:00) 0 0 0 0 0
15-02-2021 11.2 (17:50) 3.7 (00:00) 7.4 9.44 (14:30) 3.33 (01:00) 0 0 0 0 0
14-02-2021 12.6 (16:20) 4.5 (00:00) 8.6 5.28 (12:50) 3.06 (12:00) 0 0 0 0 0
13-02-2021 13.9 (16:30) 4 (00:00) 8.9 8.33 (17:30) 4.17 (17:20) 0 0 0 0 0
12-02-2021 11.7 (15:50) 5.9 (00:00) 8.8 13.61 (12:20) 6.94 (12:40) 3.7 2.8 0.9 0 0
11-02-2021 9.3 (17:20) 3.5 (00:00) 6.4 9.17 (03:10) 5.28 (03:10) 0.1 0 0 0 0.1
10-02-2021 10.8 (15:00) 3.1 (00:00) 7 16.39 (07:20) 7.5 (04:10) 3.4 3.1 0.3 0 0
09-02-2021 5.4 (14:20) 2.7 (00:00) 4.1 16.39 (14:30) 9.72 (13:10) 12.7 2.6 5.4 4.2 0.5
08-02-2021 7.6 (14:20) 2.1 (00:00) 4.8 14.72 (14:30) 7.5 (21:10) 13.2 6.8 1.9 2.1 2.4
07-02-2021 8 (14:30) 1.5 (00:00) 4.8 10 (19:20) 5.83 (23:40) 0 0 0 0 0
06-02-2021 9.1 (14:40) 4.2 (00:00) 6.7 7.78 (04:40) 5 (23:50) 7.9 0.2 0.6 6.9 0.2
05-02-2021 12.8 (15:10) 6.2 (00:00) 9.5 8.33 (06:50) 5 (09:50) 8.1 0.1 0 0 8
04-02-2021 9.1 (15:40) 6.1 (00:00) 7.6 6.94 (16:40) 4.17 (03:00) 0.6 0.3 0.3 0 0
03-02-2021 7.9 (23:10) 5.1 (00:00) 6.5 9.17 (06:00) 6.11 (06:20) 5.6 0 0 0.5 5.1
02-02-2021 9.5 (00:50) 4.1 (00:00) 6.8 9.17 (15:40) 5.28 (19:20) 0.2 0 0.1 0.1 0
01-02-2021 13.8 (13:50) 6.6 (00:00) 10.2 20.83 (01:20) 8.89 (01:00) 0.1 0.1 0 0 0
31-01-2021 13.5 (16:10) 4.8 (00:00) 9.2 20 (21:40) 9.17 (22:00) 0.1 0 0 0 0.1

Gráficas

Temp. máximas Temp. mínimas Temp. medias Precipitaciones Rachas de viento máximas Velocidades máximas media en intervalos de 10 minutos

Datos horarios

Fecha y hora oficial Temperatura (ºC) Velocidad del viento (km/h) Dirección del viento Racha (km/h) Dirección de racha Precipitación (mm) Presión (hPa) Tendencia (hPa) Humedad (%)
2021-03-01 23:00:00 6 8 Sudeste 15 Sudeste 0 907.8 0.7 94
2021-03-01 22:00:00 6.1 8 Sudeste 15 Sudeste 0 907.6 1 94
2021-03-01 21:00:00 6.2 7 Sudeste 22 Este 0 907.3 1.2 99
2021-03-01 20:00:00 5.9 5 Este 9 Este 0.1 907.1 1.3 99
2021-03-01 19:00:00 5.9 7 Este 17 Nordeste 0.1 906.6 1 99
2021-03-01 18:00:00 5.6 7 Nordeste 17 Este 0 906.1 0.5 99
2021-03-01 17:00:00 6 10 Este 19 Nordeste 0 905.8 -0.3 94
2021-03-01 16:00:00 6 9 Este 14 Este 0 905.6 -1.2 94
2021-03-01 15:00:00 5.7 5 Nordeste 12 Nordeste 0 905.6 -- 94
2021-03-01 14:00:00 5.3 7 Nordeste 13 Nordeste 0.3 906.1 -- 93
2021-03-01 13:00:00 5.5 6 Nordeste 18 Este 0.2 906.8 -- 85
2021-03-01 12:00:00 5.5 6 Este 16 Este 0 907 -- 81
2021-03-01 11:00:00 5.4 11 Este 18 Este 0 906.7 -- 79
2021-03-01 10:00:00 5.6 9 Este 14 Este 0 906.6 -- 79
2021-03-01 09:00:00 5.4 7 Nordeste 14 Nordeste 0 906.2 -- 79
2021-03-01 08:00:00 5.2 6 Nordeste 12 Nordeste 0 906 -- 79
2021-03-01 07:00:00 5.2 7 Nordeste 10 Nordeste 0 905.9 -- 79
2021-03-01 06:00:00 5.1 7 Este 12 Este 0 905.9 -- 79
2021-03-01 05:00:00 4.9 6 Este 12 Este 0 906.2 -- 79
2021-03-01 04:00:00 4.8 4 Este 9 Sudeste 0 906.3 -- 80
2021-03-01 03:00:00 4.8 5 Sur 14 Sudeste 0 906.5 -- 81
2021-03-01 02:00:00 4.9 4 Sudeste 16 Sudeste 0 906.2 -- 83
2021-03-01 01:00:00 5 6 Sur 20 Sudeste 0 906 -- 83
2021-03-01 00:00:00 5.6 8 Sudeste 20 Sudeste 0 906 -- 83
2021-02-28 23:00:00 5.8 13 Sudeste 46 Sudeste 0 905.8 -- 81
2021-02-28 22:00:00 6.4 19 Sudeste 35 Sudeste 0 905.3 -- 75
2021-02-28 21:00:00 6.8 21 Sudeste 32 Sudeste 0 905 -- 69
2021-02-28 20:00:00 7.7 16 Sudeste 28 Sudeste 0 904.6 -- 65
2021-02-28 19:00:00 9.1 15 Sudeste 26 Sudeste 0 904 -- 59
2021-02-28 18:00:00 10.1 4 Sudeste 8 Sudeste 0 903.6 -- 59
2021-02-28 17:00:00 10.2 2 Sudeste 8 Sudeste 0 903.8 -- 59
2021-02-28 16:00:00 9.5 3 Sur 19 Sudeste 0 904 -- 60
2021-02-28 15:00:00 9.6 4 Sur 24 Nordeste 0 904.5 -- 60
2021-02-28 14:00:00 10 8 Sudeste 18 Sur 0 905.2 -- 61
2021-02-28 13:00:00 7.7 7 Sudeste 21 Sudeste 0 906.1 -- 66
2021-02-28 12:00:00 7.3 9 Sudeste 24 Sudeste 0 906.4 -- 65
2021-02-28 11:00:00 6.7 5 Sudeste 12 Sur 0 906.8 -- 69
2021-02-28 10:00:00 4.5 3 Oeste 8 Oeste 0 906.6 -- 79
2021-02-28 09:00:00 3.4 0 Calma 12 Sudeste 0 906.6 -- 83
2021-02-28 08:00:00 2 10 Sudeste 18 Sur 0 906 -- 78
2021-02-28 07:00:00 4.4 7 Sur 10 Sur 0 905.7 -- 57
2021-02-28 06:00:00 5 4 Sur 8 Sur 0 905.6 -- 53
2021-02-28 05:00:00 5.8 5 Sudeste 14 Sudeste 0 905.7 -- 50
2021-02-28 04:00:00 6.2 8 Sudeste 16 Nordeste 0 905.8 -- 48
2021-02-28 03:00:00 6.4 9 Nordeste 26 Nordeste 0 906.1 -- 46
2021-02-28 02:00:00 6.8 13 Nordeste 28 Norte 0 906.6 -- 48
2021-02-28 01:00:00 7.4 10 Nordeste 23 Nordeste 0 906.6 -- 49
2021-02-28 00:00:00 8.3 11 Nordeste 23 Norte 0 906.7 -- 53
2021-02-27 23:00:00 10.5 8 Nordeste 19 Nordeste 0 906.5 -- 42
2021-02-27 22:00:00 11.3 6 Nordeste 10 Nordeste 0 906.2 -- 33
2021-02-27 21:00:00 12 5 Norte 9 Norte 0 906.1 -- 33
2021-02-27 20:00:00 12.5 3 Norte 5 Norte 0 906.7 -- 30
2021-02-27 19:00:00 13.9 0 Calma 6 Sur 0 906.7 -- 28
2021-02-27 18:00:00 15.5 5 Sur 18 Sudeste 0 906.6 -- 28
2021-02-27 17:00:00 16.1 11 Sudeste 20 Este 0 907 -- 27
2021-02-27 16:00:00 16.8 9 Sudeste 18 Sudeste 0 907.5 -- 27
2021-02-27 15:00:00 16.2 9 Sudeste 17 Este 0 908.1 -- 30
2021-02-27 14:00:00 16.2 7 Este 21 Sudeste 0 909 -- 28
2021-02-27 13:00:00 15.2 11 Este 23 Este 0 909.8 -- 32
2021-02-27 12:00:00 13.7 10 Sudeste 19 Sudeste 0 910.2 -- 44
2021-02-27 11:00:00 13.3 8 Este 18 Este 0 910.5 -- 37
2021-02-27 10:00:00 12.8 11 Este 18 Este 0 910.5 -- 36
2021-02-27 09:00:00 10.3 9 Nordeste 16 Norte 0 910.3 -- 39
2021-02-27 08:00:00 8.6 9 Nordeste 17 Nordeste 0 910.2 -- 42
2021-02-27 07:00:00 9.5 9 Nordeste 19 Norte 0 910.1 -- 42
2021-02-27 06:00:00 8.9 9 Nordeste 17 Nordeste 0 910.2 -- 47
2021-02-27 05:00:00 9.3 10 Nordeste 19 Nordeste 0 910.5 -- 47
2021-02-27 04:00:00 9.3 9 Nordeste 22 Nordeste 0 910.9 -- 50
2021-02-27 03:00:00 8.7 9 Nordeste 18 Norte 0 911.4 -- 52
2021-02-27 02:00:00 8.6 5 Nordeste 16 Este 0 911.7 -- 53
2021-02-27 01:00:00 9.3 10 Nordeste 18 Nordeste 0 911.9 -- 50
2021-02-27 00:00:00 9.7 10 Nordeste 17 Nordeste 0 912.2 -- 49
2021-02-26 23:00:00 10.5 6 Nordeste 14 Nordeste 0 912.4 -- 47
2021-02-26 22:00:00 10.5 6 Nordeste 14 Norte 0 912.2 -- 48
2021-02-26 21:00:00 10.3 6 Nordeste 16 Nordeste 0 911.9 -- 51
2021-02-26 20:00:00 10.3 6 Nordeste 14 Nordeste 0 912 -- 51
2021-02-26 19:00:00 11 7 Nordeste 13 Este 0 911.9 -- 51
2021-02-26 18:00:00 12.9 10 Este 18 Sudeste 0 911.7 -- 46
2021-02-26 17:00:00 13.3 11 Este 18 Este 0 911.8 -- 45
2021-02-26 16:00:00 13 8 Este 16 Este 0 911.9 -- 49
2021-02-26 15:00:00 13.1 3 Este 20 Este 0 912.2 -- 47
2021-02-26 14:00:00 12.5 7 Este 31 Sudeste 0 912.9 -- 52
2021-02-26 13:00:00 11.1 6 Este 39 Este 0 913.5 -- 53
2021-02-26 12:00:00 10.1 8 Este 29 Este 0 913.7 -- 57
2021-02-26 11:00:00 9.5 10 Este 31 Este 0 913.6 -- 60
2021-02-26 10:00:00 8.9 9 Nordeste 19 Este 0 913.3 -- 67
2021-02-26 09:00:00 7.6 7 Nordeste 17 Nordeste 0 912.9 -- 75
2021-02-26 08:00:00 6.1 5 Nordeste 11 Nordeste 0 912.6 -- 76
2021-02-26 07:00:00 6.1 6 Nordeste 12 Este 0 912.5 -- 78
2021-02-26 06:00:00 6.2 8 Nordeste 13 Nordeste 0 912.3 -- 76
2021-02-26 05:00:00 6.1 8 Nordeste 14 Nordeste 0 912.4 -- 75
2021-02-26 04:00:00 7.1 10 Nordeste 14 Nordeste 0 912.6 -- 71
2021-02-26 03:00:00 8.1 5 Nordeste 13 Este 0 913.1 -- 69
2021-02-26 02:00:00 8.1 7 Nordeste 16 Nordeste 0 913.3 -- 66
2021-02-26 01:00:00 8.2 9 Nordeste 18 Nordeste 0 913.4 -- 65
2021-02-26 00:00:00 8.5 9 Nordeste 20 Nordeste 0 913.3 -- 64
2021-02-25 23:00:00 8.7 9 Nordeste 21 Norte 0 913.3 -- 62
2021-02-25 22:00:00 9 8 Nordeste 22 Norte 0 912.7 -- 58
2021-02-25 21:00:00 8.7 10 Nordeste 21 Nordeste 0 912.6 -- 62
2021-02-25 20:00:00 8.6 6 Nordeste 16 Norte 0 912.4 -- 62
2021-02-25 19:00:00 8.7 8 Nordeste 16 Nordeste 0 912.1 -- 64
2021-02-25 18:00:00 9.1 7 Este 15 Este 0 911.9 -- 66
2021-02-25 17:00:00 9.3 11 Este 16 Sudeste 0 912 -- 65
2021-02-25 16:00:00 9.5 7 Este 16 Este 0 912.1 -- 65
2021-02-25 15:00:00 9.3 9 Sudeste 17 Este 0 912.3 -- 68
2021-02-25 14:00:00 9.2 5 Este 27 Sudeste 0 912.4 -- 69
2021-02-25 13:00:00 8.1 5 Este 29 Sudeste 0 912.9 -- 71
2021-02-25 12:00:00 7.4 3 Nordeste 31 Sudeste 0 913.5 -- 76
2021-02-25 11:00:00 6.6 6 Nordeste 14 Este 0 913.5 -- 82
2021-02-25 10:00:00 5.7 4 Este 15 Este 0 913.1 -- 90
2021-02-25 09:00:00 5 6 Nordeste 9 Nordeste 0 912.8 -- 92
2021-02-25 08:00:00 4.6 5 Nordeste 8 Nordeste 0 912.4 -- 92
2021-02-25 07:00:00 4.5 6 Nordeste 11 Nordeste 0 912.2 -- 92
2021-02-25 06:00:00 4.3 9 Nordeste 15 Nordeste 0 912 -- 92
2021-02-25 05:00:00 4.5 9 Nordeste 14 Este 0 912.2 -- 88
2021-02-25 04:00:00 4.7 3 Este 15 Este 0 912.7 -- 87
2021-02-25 03:00:00 5.3 6 Nordeste 13 Nordeste 0 912.8 -- 85
2021-02-25 02:00:00 5.7 8 Nordeste 13 Nordeste 0 913.1 -- 83
2021-02-25 01:00:00 5.9 7 Nordeste 12 Este 0 913.7 -- 82
2021-02-25 00:00:00 6.7 2 Nordeste 8 Este 0 913.8 -- 82
2021-02-24 23:00:00 7.3 5 Este 17 Este 0 913.9 -- 81
2021-02-24 22:00:00 7.7 12 Sudeste 52 Sudeste 0 913.6 -- 80
2021-02-24 21:00:00 7.8 12 Este 43 Sudeste 0 913.3 -- 79
2021-02-24 20:00:00 8.4 9 Sudeste 19 Este 0 913.3 -- 78
2021-02-24 19:00:00 9.4 10 Sudeste 20 Sudeste 0 913.4 -- 75
2021-02-24 18:00:00 10 10 Sudeste 19 Sur 0 913.3 -- 73
2021-02-24 17:00:00 10.4 8 Sudeste 18 Sur 0 913.3 -- 74
2021-02-24 16:00:00 10.5 6 Sudeste 18 Sudeste 0 914 -- 75
2021-02-24 15:00:00 9.4 6 Sur 13 Sur 0 914.8 -- 81
2021-02-24 14:00:00 8.2 0 Calma 13 Este 0 915.7 -- 84
2021-02-24 13:00:00 6.8 6 Sudeste 19 Sur 0 916.8 -- 83
2021-02-24 12:00:00 6.9 6 Sudeste 34 Sudeste 0 917.2 -- 80
2021-02-24 11:00:00 7.1 8 Sudeste 17 Sudeste 0 917.3 -- 78
2021-02-24 10:00:00 7.1 2 Oeste 15 Oeste 0 917.3 -- 78
2021-02-24 09:00:00 5.8 4 Oeste 12 Norte 0 917 -- 81
2021-02-24 08:00:00 4.4 5 Norte 10 Noroeste 0 916.9 -- 85
2021-02-24 07:00:00 3.9 4 Noroeste 10 Nordeste 0 916.9 -0.7 89
2021-02-24 06:00:00 4.2 2 Oeste 13 Oeste 0 917.2 -0.5 87
2021-02-24 05:00:00 4.6 6 Sudeste 11 Sudeste 0 917.4 -- 84
2021-02-24 04:00:00 4.7 4 Este 12 Sur 0 917.6 -- 80
2021-02-24 03:00:00 5.4 5 Sur 14 Sudeste 0 917.7 -- 77
2021-02-24 02:00:00 5.8 3 Este 10 Sudeste 0 917.8 0 77
2021-02-24 01:00:00 5.4 4 Este 6 Este 0 917.9 -- 75
2021-02-24 00:00:00 5.8 2 Sudeste 5 Noroeste 0 918 -- 72
2021-02-23 23:00:00 6.3 3 Noroeste 5 Sudoeste 0 917.8 -- 69
2021-02-23 22:00:00 6.6 4 Sur 12 Sur 0 917.6 -- 66
2021-02-23 21:00:00 7.5 5 Sudeste 18 Este 0 917.3 0.9 64
2021-02-23 20:00:00 7.5 3 Este 13 Este 0 917.2 -- 62
2021-02-23 19:00:00 8.2 4 Sudeste 15 Sudeste 0 916.6 -- 59
2021-02-23 18:00:00 8.8 5 Sur 14 Sudeste 0 916.4 -- 57
2021-02-23 17:00:00 9.2 10 Sur 24 Sudeste 0 916.4 -- 56
2021-02-23 16:00:00 10.9 8 Sur 17 Sudoeste 0 916.1 -- 53
2021-02-23 15:00:00 10.1 11 Sur 18 Sudoeste 0 916.1 -- 57
2021-02-23 14:00:00 9.3 5 Sudoeste 17 Sudeste 0 916.3 -- 58
2021-02-23 13:00:00 8.9 5 Sudeste 19 Este 0 917 -- 61
2021-02-23 12:00:00 7.7 3 Este 19 Sudeste 0 916.8 -- 67
2021-02-23 11:00:00 7 6 Nordeste 22 Este 0 916.5 -- 72
2021-02-23 10:00:00 5.7 7 Este 17 Este 0 915.8 -- 78
2021-02-23 09:00:00 3.5 7 Nordeste 15 Nordeste 0 915 -- 88
2021-02-23 08:00:00 2 10 Nordeste 16 Nordeste 0 913.9 -- 87
2021-02-23 07:00:00 2 8 Nordeste 10 Nordeste 0 913.5 -- 82
2021-02-23 06:00:00 2.7 0 Calma 6 Noroeste 0 912.9 -- 75
2021-02-23 05:00:00 2.6 5 Norte 8 Norte 0 912.4 -- 75
2021-02-23 04:00:00 2.5 3 Noroeste 7 Nordeste 0 911.8 -- 75
2021-02-23 03:00:00 2.6 6 Noroeste 9 Noroeste 0 911.7 -- 75
2021-02-23 02:00:00 2.8 6 Norte 9 Noroeste 0 911.3 -- 76
2021-02-23 01:00:00 2.7 2 Norte 7 Sudeste 0 910.8 -- 70
2021-02-23 00:00:00 3.1 4 Sur 10 Sudeste 0 910.2 -- 68
2021-02-22 23:00:00 3.9 6 Noroeste 10 Norte 0 909.5 -- 63
2021-02-22 22:00:00 4.6 6 Norte 10 Norte 0 908.8 -- 62
2021-02-22 21:00:00 4.9 8 Nordeste 14 Norte 0 908.1 -- 59
2021-02-22 20:00:00 5.7 0 Calma 26 Sudeste 0 907.5 -- 55
2021-02-22 19:00:00 6 9 Sudeste 19 Sur 0 906.5 -- 57
2021-02-22 18:00:00 7 7 Este 20 Nordeste 0 905.6 -- 53
2021-02-22 17:00:00 9 6 Nordeste 15 Norte 0 904.8 -- 47
2021-02-22 16:00:00 7.5 5 Norte 14 Nordeste 0 904.3 -- 54
2021-02-22 15:00:00 6.4 7 Oeste 13 Oeste 0 903.6 -- 57
2021-02-22 14:00:00 6.9 8 Sur 17 Sur 0 903.2 -- 63
2021-02-22 13:00:00 6.6 4 Noroeste 15 Oeste 0 903.4 -- 64
2021-02-22 12:00:00 5.4 6 Sur 11 Sur 0 903 -- 82
2021-02-22 11:00:00 3.9 8 Sudeste 18 Sur 0 902.3 -- 91
2021-02-22 10:00:00 3.3 9 Sudeste 33 Sudeste 0 901.4 -- 98
2021-02-22 09:00:00 2.5 6 Nordeste 12 Nordeste 0 900.1 -- 99
2021-02-22 08:00:00 2.4 6 Sudoeste 17 Sudoeste 0 898.8 -- 99
2021-02-22 07:00:00 3 7 Oeste 27 Este 0 897.6 1.8 82
2021-02-22 06:00:00 2.3 16 Este 23 Este 0 896.9 -- 99
2021-02-22 05:00:00 2.4 11 Este 14 Este 0 895.9 -- 99
2021-02-22 04:00:00 2.5 10 Este 14 Este 0 895.8 -- 99
2021-02-22 03:00:00 2.5 10 Sudeste 17 Sudeste 0 895.6 -- 99
2021-02-22 02:00:00 3.2 10 Sudeste 15 Sudeste 0 894.7 -- 99
2021-02-22 01:00:00 3.2 8 Sur 21 Nordeste 0.1 893.8 -- 99
2021-02-22 00:00:00 3.7 11 Nordeste 21 Nordeste 0 893 -- 96
2021-02-21 23:00:00 3.3 4 Noroeste 25 Oeste 1.8 892.6 -- 99
2021-02-21 22:00:00 2.8 12 Oeste 32 Oeste 1.4 892.6 0.9 99
2021-02-21 21:00:00 3.4 16 Oeste 30 Sudeste 3.2 892.4 -- 99
2021-02-21 20:00:00 6.5 10 Este 19 Este 0.2 891.9 -- 99
2021-02-21 19:00:00 6.7 14 Este 21 Este 0.1 891.7 -- 99
2021-02-21 18:00:00 7.2 11 Este 15 Este 0.1 891.2 -- 97
2021-02-21 17:00:00 7.4 9 Este 11 Este 0 891.2 -- 98
2021-02-21 16:00:00 6.9 8 Este 13 Sudeste 0.3 891.5 -- 99
2021-02-21 15:00:00 6.4 11 Sudeste 21 Sudeste 0.1 891.9 -- 97
2021-02-21 14:00:00 6.4 11 Sudeste 18 Sudeste 0 892.3 -- 93
2021-02-21 13:00:00 6.4 13 Sudeste 21 Sudeste 0 893.3 -- 85
2021-02-21 12:00:00 6.9 7 Sudeste 15 Sudeste 0 893.5 -- 78
2021-02-21 11:00:00 6.9 0 Calma 13 Sur 0 893.4 -- 79
2021-02-21 10:00:00 6.1 7 Sur 13 Sur 0 894.1 -- 81
2021-02-21 09:00:00 5.6 6 Sur 10 Sur 0 894 -- 79
2021-02-21 08:00:00 5 3 Noroeste 9 Sudeste 0 894 -- 82
2021-02-21 07:00:00 5.5 7 Sudeste 22 Sudeste 0 893.9 -- 79
2021-02-21 06:00:00 5.8 17 Sudeste 33 Sudeste 0 894.6 -- 79
2021-02-21 05:00:00 5.7 12 Sudeste 21 Sudeste 0 894.6 -- 83
2021-02-21 04:00:00 5.8 10 Este 28 Sudeste 0 895 -- 85
2021-02-21 03:00:00 6 13 Sudeste 23 Sur 0 895.6 -- 85
2021-02-21 02:00:00 6 12 Sudeste 22 Sudeste 0 896 -- 83
2021-02-21 01:00:00 6.9 14 Sudeste 23 Sudeste 0 896.4 -- 70
2021-02-21 00:00:00 7.4 14 Sudeste 22 Sudeste 0 896.6 -- 54
2021-02-20 23:00:00 8.2 14 Sudeste 21 Sudeste 0 896.6 -- 40
2021-02-20 22:00:00 9.3 9 Sudeste 13 Sudeste 0 896.6 -- 36
2021-02-20 21:00:00 9.3 8 Sur 20 Sur 0 897.1 -- 37
2021-02-20 20:00:00 10.2 11 Sur 19 Sur 0 897.7 -- 35
2021-02-20 19:00:00 11.3 12 Sur 31 Sur 0 897.7 -- 34
2021-02-20 18:00:00 12.9 18 Sur 43 Sur 0 897.7 -- 31
2021-02-20 17:00:00 14 17 Sur 37 Sur 0 897.9 -- 35
2021-02-20 16:00:00 13.9 17 Sur 31 Sudeste 0 898.3 -- 37
2021-02-20 15:00:00 13.8 14 Sur 30 Sur 0 898.7 -- 41
2021-02-20 14:00:00 12.8 15 Sur 33 Sur 0 899.6 -- 42
2021-02-20 13:00:00 12.5 11 Sur 27 Sur 0 900.7 -- 49
2021-02-20 12:00:00 10.3 10 Sur 19 Sur 0 901.2 -- 59
2021-02-20 11:00:00 7.7 8 Sudoeste 14 Sudoeste 0 901.2 -- 63
2021-02-20 10:00:00 6.3 5 Sudoeste 8 Sur 0 901.1 -- 63
2021-02-20 09:00:00 5.9 4 Este 6 Sudeste 0 901 0.2 62
2021-02-20 08:00:00 5.3 5 Sudeste 13 Este 0 900.5 -- 60
2021-02-20 07:00:00 6 7 Sudeste 11 Sudeste 0 900.7 -- 57
2021-02-20 06:00:00 6 6 Sur 10 Sur 0 900.8 -- 57
2021-02-20 05:00:00 6.7 5 Sur 12 Sudoeste 0 900.5 -- 54
2021-02-20 04:00:00 7.1 9 Sudoeste 13 Sudoeste 0 900.9 -1.1 54
2021-02-20 03:00:00 6.8 5 Sur 9 Sur 0 901.3 -- 57
2021-02-20 02:00:00 8 4 Sudoeste 9 Sudoeste 0 901.6 -- 53
2021-02-20 01:00:00 8.5 7 Sudoeste 13 Sudoeste 0 902 -- 52
2021-02-20 00:00:00 9.1 8 Sudoeste 17 Sudoeste 0 902.3 -- 49
2021-02-19 23:00:00 8.9 11 Sudoeste 13 Sudoeste 0 902.5 -0.4 49
2021-02-19 22:00:00 10.1 8 Sudoeste 13 Sudoeste 0 902.6 -- 45
2021-02-19 21:00:00 10 7 Sudoeste 14 Sudoeste 0 902.3 -- 45
2021-02-19 20:00:00 10.1 6 Oeste 10 Oeste 0 902.9 -- 43
2021-02-19 19:00:00 11 8 Sudoeste 16 Sudoeste 0 902.7 -- 41
2021-02-19 18:00:00 11.6 10 Sudoeste 28 Sudoeste 0 902.8 -- 40
2021-02-19 17:00:00 12.8 17 Sudoeste 31 Sudoeste 0 903 -0.9 37
2021-02-19 16:00:00 13 19 Sudoeste 35 Sudoeste 0 903 -- 39
2021-02-19 15:00:00 12.6 14 Sur 26 Sur 0 903.5 -- 46
2021-02-19 14:00:00 12.5 12 Sudoeste 21 Sur 0 903.9 -- 52
2021-02-19 13:00:00 11.5 8 Sur 17 Sudeste 0 904.7 -- 55
2021-02-19 12:00:00 10.8 5 Sur 17 Sudeste 0 905.3 -- 59
2021-02-19 11:00:00 8.5 8 Sudeste 12 Sudeste 0 905.3 -- 69
2021-02-19 10:00:00 8.8 3 Sudoeste 6 Sudoeste 0 905 -- 66
2021-02-19 09:00:00 6.6 4 Sur 7 Sudoeste 0 904.8 -- 75
2021-02-19 08:00:00 5 0 Calma 6 Sudeste 0 904.5 -- 76
2021-02-19 07:00:00 5 5 Sudeste 9 Oeste 0 904.5 -- 72
2021-02-19 06:00:00 5.4 5 Oeste 9 Oeste 0 904.4 -- 66
2021-02-19 05:00:00 6.1 7 Oeste 8 Oeste 0 904.1 -- 67
2021-02-19 04:00:00 5.9 6 Oeste 9 Oeste 0 904.3 -- 68
2021-02-19 03:00:00 6.1 5 Oeste 12 Oeste 0 904.6 -- 63
2021-02-19 02:00:00 7 6 Sudoeste 12 Oeste 0 904.9 -- 57
2021-02-19 01:00:00 7 6 Este 15 Norte 0 905.1 -- 53
2021-02-19 00:00:00 7.2 8 Sur 15 Sur 0 905.2 -- 50
2021-02-18 23:00:00 7.3 8 Sur 16 Sur 0 905.2 -- 48
2021-02-18 22:00:00 7.4 8 Sur 16 Sur 0 904.9 -- 47
2021-02-18 21:00:00 7.6 10 Sur 21 Sur 0 904.7 -- 46
2021-02-18 20:00:00 8.8 11 Sur 27 Sur 0 904.4 -- 42
2021-02-18 19:00:00 9.1 8 Sur 30 Sur 0 903.8 -- 42
2021-02-18 18:00:00 10.8 17 Este 39 Este 0 903.4 -- 42
2021-02-18 17:00:00 11.6 21 Este 34 Este 0 903.1 -- 46
2021-02-18 16:00:00 12 20 Este 33 Sur 0 903.3 -- 49
2021-02-18 15:00:00 11.9 23 Sur 36 Sur 0 903.3 -- 51
2021-02-18 14:00:00 11.7 23 Sur 36 Sur 0 903.7 -- 53
2021-02-18 13:00:00 10.1 15 Sur 25 Sur 0 904.3 -- 66
2021-02-18 12:00:00 8.7 12 Sur 16 Sur 0 904.3 -- 79
2021-02-18 11:00:00 7.3 8 Sur 15 Sur 0 904.4 -- 86
2021-02-18 10:00:00 6.1 0 Calma 17 Sur 0 904.2 -- 85
2021-02-18 09:00:00 5.7 6 Sur 9 Sur 0 903.6 -- 84
2021-02-18 08:00:00 5.6 0 Calma 13 Sur 0 903.1 -- 82
2021-02-18 07:00:00 6.3 9 Sur 13 Sur 0 902.9 -- 79
2021-02-18 06:00:00 6.3 8 Sur 10 Sur 0 903.1 -- 77
2021-02-18 05:00:00 6.6 7 Sur 9 Sur 0 903.3 -- 73
2021-02-18 04:00:00 7.4 5 Sur 12 Sur 0 903.5 -- 67
2021-02-18 03:00:00 8.1 6 Sur 11 Sur 0 904 -- 64
2021-02-18 02:00:00 8 6 Sur 9 Sur 0 904.3 -- 66
2021-02-18 01:00:00 8.2 3 Sudeste 10 Este 0 904.6 -- 66
2021-02-18 00:00:00 8.9 6 Este 8 Este -- 904.7 -- 64
2021-02-17 23:00:00 7.9 2 Este 5 Este 0 905.2 -- 77
2021-02-17 22:00:00 8.2 3 Este 7 Este 0 905.3 -- 75
2021-02-17 21:00:00 8.8 4 Este 8 Este 0 905.3 -- 68
2021-02-17 20:00:00 8.9 4 Este 12 Este 0 905.4 -- 67
2021-02-17 19:00:00 9.8 8 Este 19 Este 0 905.3 -- 62
2021-02-17 18:00:00 10.8 10 Este 19 Este 0 905.7 -- 60
2021-02-17 17:00:00 11.5 11 Este 18 Este 0 905.9 -- 61
2021-02-17 16:00:00 12.4 12 Este 22 Este 0 906.1 -- 61
2021-02-17 15:00:00 12.5 7 Este 19 Este 0 906.8 -- 64
2021-02-17 14:00:00 10.8 11 Este 25 Este 0 907.5 -- 70
2021-02-17 13:00:00 11.1 10 Este 33 Este 0 908.1 -- 70
2021-02-17 12:00:00 9.2 10 Este 21 Este 0 908.8 -- 84
2021-02-17 11:00:00 8 4 Sur 13 Sur 0 909.1 -- 88
2021-02-17 10:00:00 7.3 4 Sur 15 Sur 0 908.9 -- 90
2021-02-17 09:00:00 5.7 0 Calma 5 Sur 0 908.6 -- 97
2021-02-17 08:00:00 5.1 2 Sur 9 Este 0 908.2 -- 99
2021-02-17 07:00:00 4.5 4 Este 10 Este 0 908.5 -- 99
2021-02-17 06:00:00 4.9 6 Este 10 Este 0 908.6 -- 94
2021-02-17 05:00:00 7.2 8 Este 12 Este 0 908.4 -- 82
2021-02-17 04:00:00 6.2 0 Calma 9 Este 0 909.1 -- 87
2021-02-17 03:00:00 6.6 4 Este 7 Este 0 909.2 -- 81
2021-02-17 02:00:00 7 3 Este 8 Este 0 909.3 -- 81
2021-02-17 01:00:00 7 4 Este 6 Este 0 909.6 -- 76
2021-02-17 00:00:00 7.2 4 Este 6 Este 0 909.8 -- 75
2021-02-16 23:00:00 7.7 2 Este 4 Este 0 910 -- 73
2021-02-16 22:00:00 8 3 Este 10 Este 0 910 -- 78
2021-02-16 21:00:00 8.3 5 Este 12 Este 0 909.9 -- 75
2021-02-16 20:00:00 9 9 Este 13 Este 0 909.8 -- 75
2021-02-16 19:00:00 9 3 Este 17 Este 0 909.9 -- 72
2021-02-16 18:00:00 10.1 11 Este 20 Norte 0 909.4 -- 68
2021-02-16 17:00:00 10.5 15 Este 23 Sur 0 909.6 -- 66
2021-02-16 16:00:00 10.5 12 Sur 22 Sur 0 910.1 -- 66
2021-02-16 15:00:00 9.6 8 Sur 21 Este 0 910.5 -- 72
2021-02-16 14:00:00 9.6 6 Sudeste 13 Sudeste 0 911 -- 73
2021-02-16 13:00:00 8.2 3 Sudeste 13 Sudeste 0 911.9 -- 79
2021-02-16 12:00:00 7.5 8 Sur 13 Este 0 912.2 -- 81
2021-02-16 11:00:00 7.4 6 Sur 13 Sur 0 912.1 -- 83
2021-02-16 10:00:00 5.8 3 Sudeste 12 Este 0 912 -- 94
2021-02-16 09:00:00 3.5 3 Noroeste 6 Noroeste 0 911.9 -- 97
2021-02-16 08:00:00 3.8 3 Sudeste 5 Sudeste 0 911.6 -- 95
2021-02-16 07:00:00 3.8 0 Calma 6 Sudeste 0 911.6 -- 91
2021-02-16 06:00:00 4.4 4 Sudeste 5 Sudeste 0 911.8 -- 90
2021-02-16 05:00:00 4.7 0 Calma 4 Sudeste 0 912.3 -- 88
2021-02-16 04:00:00 4.7 0 Calma -- -- 0 912.6 -- 87
2021-02-16 03:00:00 5 0 Calma 4 Sur 0 913.3 -- 87
2021-02-16 02:00:00 5.1 0 Calma 4 Sudoeste 0 913.8 -- 85
2021-02-16 01:00:00 5.8 0 Calma 11 Sudeste 0 914.3 -- 82
2021-02-16 00:00:00 6.6 8 Sudeste 12 Este 0 914.5 -- 82
2021-02-15 23:00:00 7.4 6 Este 12 Sudeste 0 914.6 -- 79
2021-02-15 22:00:00 7.9 5 Sudeste 10 Sudeste 0 914.9 -- 75
2021-02-15 21:00:00 8.1 3 Oeste 7 Sudoeste 0 914.5 -- 72
2021-02-15 20:00:00 8.2 4 Sudoeste 6 Sudoeste 0 914.3 -- 71
2021-02-15 19:00:00 8.8 4 Sudoeste 6 Oeste 0 914.2 -- 68
2021-02-15 18:00:00 11 3 Sur 14 Sudoeste 0 914.2 -- 62
2021-02-15 17:00:00 10.7 7 Sudoeste 19 Sur 0 914.6 -- 62
2021-02-15 16:00:00 10.2 8 Sur 15 Sudeste 0 914.9 -- 65
2021-02-15 15:00:00 9.1 5 Sudeste 34 Sur 0 915.1 -- 67
2021-02-15 14:00:00 8.5 6 Sudeste 18 Sudeste 0 915.8 -- 70
2021-02-15 13:00:00 8.1 4 Este 21 Este 0 916.7 -- 75
2021-02-15 12:00:00 6.8 2 Sudeste 17 Este 0 917.2 -- 87
2021-02-15 11:00:00 6.7 4 Sudeste 15 Sudeste 0 917.2 -- 85
2021-02-15 10:00:00 5.5 3 Sudeste 12 Sudeste 0 917 -- 93
2021-02-15 09:00:00 5.2 3 Sur 12 Sudeste 0 916.4 -- 94
2021-02-15 08:00:00 5 4 Sudeste 9 Sudoeste 0 915.9 -- 99
2021-02-15 07:00:00 3.9 5 Sudoeste 7 Sudoeste 0 915.6 -- 99
2021-02-15 06:00:00 4.1 4 Sudoeste 7 Sudoeste 0 915.6 -- 96
2021-02-15 05:00:00 4.6 5 Sudeste 8 Sudeste 0 915.5 -- 96
2021-02-15 04:00:00 4.3 4 Este 8 Sudeste 0 915.6 -- 91
2021-02-15 03:00:00 5.1 6 Sudeste 10 Sudeste 0 915.9 -- 88
2021-02-15 02:00:00 5.4 5 Sudeste 15 Sudeste 0 916.1 -- 84
2021-02-15 01:00:00 5.9 12 Sudeste 17 Sudeste 0 915.8 -- 79
2021-02-15 00:00:00 6.4 8 Este 16 Este 0 915.8 -- 72
2021-02-14 23:00:00 7.4 4 Sudoeste 9 Sudoeste 0 915.4 -- 67
2021-02-14 22:00:00 7.8 3 Oeste 7 Noroeste 0 915.2 -- 66
2021-02-14 21:00:00 8.2 5 Noroeste 7 Noroeste 0 915 -- 64
2021-02-14 20:00:00 8.4 3 Oeste 7 Sudoeste 0 914.8 -- 63
2021-02-14 19:00:00 9.4 4 Sudoeste 11 Sur 0 914 0.4 59
2021-02-14 18:00:00 10.6 7 Sur 14 Sur 0 913.8 0.2 57
2021-02-14 17:00:00 11.2 10 Sur 18 Sudeste 0 913.8 -- 55
2021-02-14 16:00:00 12.4 9 Sudeste 17 Sur 0 913.6 -- 53
2021-02-14 15:00:00 11.6 9 Sudeste 16 Este 0 913.6 -- 57
2021-02-14 14:00:00 11.1 9 Sur 16 Sudeste 0 913.8 -- 58
2021-02-14 13:00:00 10.1 9 Sudeste 19 Sur 0 914.1 -- 62
2021-02-14 12:00:00 9.1 11 Sudeste 16 Sur 0 914.4 -- 69
2021-02-14 11:00:00 8.7 7 Sur 11 Sudeste 0 913.9 -- 70
2021-02-14 10:00:00 8.4 3 Sur 5 Sur 0 913.5 -- 71
2021-02-14 09:00:00 5.9 0 Calma 7 Oeste 0 912.9 -- 79
2021-02-14 08:00:00 4.7 5 Oeste 8 Oeste 0 912.6 -- 79
2021-02-14 07:00:00 4.7 5 Oeste 8 Sudoeste 0 912 -- 75
2021-02-14 06:00:00 5.1 5 Oeste 9 Oeste 0 911.8 -- 75
2021-02-14 05:00:00 6 6 Oeste 8 Oeste 0 911.7 -- 72
2021-02-14 04:00:00 5.8 4 Oeste 10 Oeste 0 911.8 -- 72
2021-02-14 03:00:00 5.5 7 Oeste 10 Oeste 0 912.2 -- 73
2021-02-14 02:00:00 5.5 5 Sudoeste 10 Sudoeste 0 912 -- 70
2021-02-14 01:00:00 5.9 6 Sudoeste 8 Sudoeste 0 911.9 -- 66
2021-02-14 00:00:00 7 3 Sudoeste 19 Sudeste 0 912.1 -- 61
2021-02-13 23:00:00 8.2 4 Sudeste 18 Sur 0 911.8 -- 55
2021-02-13 22:00:00 8.5 8 Sur 18 Sudeste 0 911.5 -- 55
2021-02-13 21:00:00 9 9 Sur 23 Sur 0 911.7 -- 54
2021-02-13 20:00:00 9.1 8 Sudeste 27 Sudoeste 0 911.2 -- 53
2021-02-13 19:00:00 10.6 4 Sudeste 25 Sudeste 0 910.9 -- 45
2021-02-13 18:00:00 11.4 13 Sudeste 30 Sur 0 910.2 -- 45
2021-02-13 17:00:00 13.2 10 Sudeste 22 Sudeste 0 909.7 -- 39
2021-02-13 16:00:00 13.4 8 Sur 20 Sudoeste 0 909.8 -- 39
2021-02-13 15:00:00 12.5 3 Sudoeste 10 Este 0 909.9 -- 51
2021-02-13 14:00:00 10.5 5 Sudeste 11 Este 0 910.1 -- 62
2021-02-13 13:00:00 8.5 6 Sudeste 12 Sudeste 0 910.7 -- 74
2021-02-13 08:00:00 4.7 3 Sudeste 6 Este 0 909 0 72
2021-02-13 07:00:00 4.2 5 Sudoeste 21 Sudoeste 0 909.2 0.5 75
2021-02-13 06:00:00 4.8 4 Sudoeste 10 Oeste 0 908.6 -0.3 69
2021-02-13 05:00:00 5.3 5 Oeste 10 Oeste 0 909 0.1 67
2021-02-13 04:00:00 6.2 5 Sudeste 14 Sudeste 0 908.7 0 65
2021-02-13 03:00:00 6.5 8 Sudeste 14 Sudeste 0 908.9 0.4 64
2021-02-13 02:00:00 5.9 4 Sur 9 Sudeste 0 908.9 0.4 70
2021-02-13 01:00:00 5.6 4 Sudeste 16 Este 0 908.7 0.3 69
2021-02-13 00:00:00 6.3 8 Este 18 Este 0 908.5 0.5 63
2021-02-12 23:00:00 6.5 10 Sudeste 15 Sudeste 0 908.5 0.6 61
2021-02-12 22:00:00 7 4 Sudoeste 12 Sudoeste 0 908.4 1.2 59
2021-02-12 21:00:00 7.4 3 Sudoeste 13 Sudoeste 0 908 1.2 55
2021-02-12 20:00:00 7.8 6 Sudoeste 20 Sudoeste 0 907.9 1.7 54
2021-02-12 19:00:00 8.1 7 Sudoeste 15 Sudoeste 0 907.2 1.7 53
2021-02-12 18:00:00 9 8 Sudoeste 31 Sudoeste 0 906.8 1.6 52
2021-02-12 17:00:00 9.9 15 Sudoeste 35 Sudoeste 0 906.2 1.1 48
2021-02-12 16:00:00 11 15 Sudoeste 42 Sudoeste 0 905.5 -0.1 47
2021-02-12 15:00:00 11.2 6 Sudoeste 28 Oeste 0 905.2 -0.1 46
2021-02-12 14:00:00 9.4 13 Sudoeste 41 Sudoeste 0 905.1 0.6 51
2021-02-12 13:00:00 9.2 19 Sudoeste 49 Sudoeste 0 905.6 1.9 58
2021-02-12 12:00:00 8.5 14 Sudoeste 39 Sudoeste 0 905.3 2.2 59
2021-02-12 11:00:00 8.7 13 Oeste 39 Noroeste 0 904.5 2.1 55
2021-02-12 10:00:00 8.1 10 Oeste 38 Noroeste 0 903.7 1.1 56
2021-02-12 09:00:00 6.3 9 Oeste 32 Noroeste 0 903.1 -- 77
2021-02-12 08:00:00 6 9 Sudoeste 32 Sudoeste 0.3 902.4 -- 88
2021-02-12 07:00:00 6.7 13 Oeste 26 Sudoeste 0.6 902.6 -- 99
2021-02-12 06:00:00 7.6 16 Sudoeste 33 Sudoeste 1.6 902.2 -- 99
2021-02-12 05:00:00 7.8 20 Sudoeste 35 Sudoeste 1.1 902.4 -- 99
2021-02-12 04:00:00 8.1 14 Sudoeste 33 Sudoeste 0 903.1 -- 99
2021-02-12 03:00:00 8 20 Sudoeste 31 Sudoeste 0 903.1 -- 99
2021-02-12 02:00:00 8 17 Sudoeste 31 Sudoeste 0 903.5 -- 99
2021-02-12 01:00:00 8 17 Sudoeste 26 Sudoeste 0.1 903.8 -- 99
2021-02-12 00:00:00 8.2 6 Sudoeste 22 Sudoeste 0 904 -- 99
2021-02-11 23:00:00 8.2 15 Sudoeste 24 Sudoeste 0 904.3 -- 99
2021-02-11 22:00:00 8.5 14 Sudoeste 20 Sudoeste 0.1 904.6 -- 99
2021-02-11 21:00:00 8.6 13 Sudoeste 18 Sudoeste 0 904.7 -- 99
2021-02-11 20:00:00 8.6 12 Sudoeste 19 Sudoeste 0 904.8 -- 99
2021-02-11 19:00:00 8.7 10 Sudoeste 18 Sudoeste 0 904.6 -- 99
2021-02-11 18:00:00 8.9 9 Sudoeste 19 Sudoeste 0 904.5 -- 99
2021-02-11 17:00:00 9.1 8 Sudoeste 17 Sur 0 904.5 -- 99
2021-02-11 16:00:00 8.6 9 Sudoeste 20 Sudoeste 0 904.7 -- 99
2021-02-11 15:00:00 8.7 7 Sudoeste 18 Oeste 0 904.7 -- 99
2021-02-11 14:00:00 8.5 7 Sudoeste 13 Sudoeste 0 905 -- 99
2021-02-11 13:00:00 7.9 6 Sudeste 15 Sudeste 0 905.5 -- 99
2021-02-11 12:00:00 6.9 4 Sudeste 11 Sur 0 905.5 -- 99
2021-02-11 11:00:00 7.3 8 Sudeste 18 Sudeste 0 905.4 -- 92
2021-02-11 10:00:00 6.3 0 Calma 13 Sudeste 0 904.9 -- 99
2021-02-11 09:00:00 4 4 Este 10 Este 0 904.7 -- 99
2021-02-11 08:00:00 3.8 0 Calma 6 Sudeste 0 904.1 -- 99
2021-02-11 07:00:00 3.9 7 Este 10 Este 0 903.9 -- 99
2021-02-11 06:00:00 4.5 3 Sudeste 6 Oeste 0 903.7 -- 88
2021-02-11 05:00:00 5.7 3 Sudoeste 12 Oeste 0 903.5 -- 77
2021-02-11 04:00:00 4.6 8 Este 33 Sudoeste 0 903.5 -- 87
2021-02-11 03:00:00 7.7 15 Sudoeste 29 Sudoeste 0 903.5 -- 59
2021-02-11 02:00:00 6.2 4 Sur 12 Sur 0 903.5 -- 53
2021-02-11 01:00:00 6.3 3 Sur 15 Sudoeste 0 903.5 -- 43
2021-02-11 00:00:00 6.1 5 Sudoeste 13 Sudoeste 0 902.6 -- 41
2021-02-10 23:00:00 5.7 6 Nordeste 9 Nordeste 0 902.2 -- 46
2021-02-10 22:00:00 6 4 Este 17 Nordeste 0 901.7 -- 45
2021-02-10 21:00:00 6.1 5 Noroeste 13 Noroeste 0 901 -- 39
2021-02-10 20:00:00 6.3 6 Noroeste 16 Noroeste 0 900.6 -- 42
2021-02-10 19:00:00 7.1 6 Sudoeste 26 Oeste 0 900.2 -- 43
2021-02-10 18:00:00 9.4 12 Oeste 30 Oeste 0 899.6 -- 39
2021-02-10 17:00:00 10.1 16 Oeste 31 Sudoeste 0 899 -- 38
2021-02-10 16:00:00 9.6 15 Oeste 37 Oeste 0 898.3 -- 40
2021-02-10 15:00:00 10 14 Oeste 36 Oeste 0 897.9 -- 39
2021-02-10 14:00:00 9.1 12 Oeste 31 Oeste 0 897.4 -- 39
2021-02-10 13:00:00 9 8 Sudoeste 35 Oeste 0 897.3 -- 43
2021-02-10 12:00:00 6.9 17 Oeste 48 Oeste 0 896.3 -- 46
2021-02-10 11:00:00 5.8 15 Oeste 33 Oeste 0 895.8 -- 53
2021-02-10 10:00:00 5.8 14 Oeste 36 Oeste 0 894.7 -- 62
2021-02-10 09:00:00 4.4 17 Oeste 43 Oeste 0 893.1 -- 75
2021-02-10 08:00:00 4 14 Oeste 59 Oeste 0 891.5 -- 75
2021-02-10 07:00:00 4.2 22 Oeste 48 Oeste 0.3 890.7 -- 76
2021-02-10 06:00:00 3.7 20 Oeste 46 Oeste 0.9 889.8 -- 92
2021-02-10 05:00:00 3.7 19 Oeste 47 Oeste 2.1 889.5 -- 99
2021-02-10 04:00:00 4.1 27 Sudoeste 45 Sudoeste 0.1 888.2 -- 99
2021-02-10 03:00:00 3.7 26 Sudoeste 52 Sudoeste 0 888.7 -- 99
2021-02-10 02:00:00 3.9 19 Sudoeste 35 Sudoeste 0 889.5 -- 99
2021-02-10 01:00:00 3.9 21 Sudoeste 32 Sudoeste 0 890 -- 99
2021-02-10 00:00:00 4.1 18 Sudoeste 28 Sudoeste 0 889.7 -- 99
2021-02-09 23:00:00 4 14 Sudoeste 23 Sudoeste 0 889.9 -- 99
2021-02-09 22:00:00 3.9 8 Sudoeste 30 Oeste 0 889.7 -- 91
2021-02-09 21:00:00 4 15 Oeste 31 Sudoeste 0.4 889.4 -- 96
2021-02-09 20:00:00 4.7 22 Sudoeste 32 Sudoeste 0.1 888.6 -- 99
2021-02-09 19:00:00 4.1 14 Sudoeste 23 Sur 0 888.5 -- 99
2021-02-09 18:00:00 4.7 14 Sudoeste 24 Oeste 0 888.7 -- 91
2021-02-09 17:00:00 4.8 16 Oeste 46 Oeste 0 888.6 -- 79
2021-02-09 16:00:00 3.7 19 Oeste 44 Oeste 0.3 887.8 -- 89
2021-02-09 15:00:00 3.1 19 Oeste 59 Oeste 2.5 887.5 -- 99
2021-02-09 14:00:00 5.2 28 Sudoeste 57 Sudoeste 0.3 887.5 -- 99
2021-02-09 13:00:00 4.9 30 Sudoeste 53 Sudoeste 1.1 888.6 -- 99
2021-02-09 12:00:00 4.7 31 Sudoeste 51 Sudoeste 0.1 889.5 -- 99
2021-02-09 11:00:00 4.4 22 Sudoeste 38 Sudoeste 0.5 890.2 -- 99
2021-02-09 10:00:00 4.2 17 Sudoeste 31 Sudoeste 0.7 890.8 -- 99
2021-02-09 09:00:00 3.9 9 Sudoeste 21 Sudoeste 0.9 891.6 -- 99
2021-02-09 08:00:00 3.4 9 Sudoeste 18 Sudoeste 1.6 891.9 -- 99
2021-02-09 07:00:00 3.4 10 Sudoeste 22 Sudoeste 1.6 892.4 -- 99
2021-02-09 06:00:00 2.9 8 Sudoeste 20 Sudoeste 0.6 893 -- 99
2021-02-09 05:00:00 2.7 14 Sudoeste 24 Sudoeste 0.6 893.4 -- 99
2021-02-09 04:00:00 3.2 9 Sudoeste 22 Sudoeste 0.6 894 -- 99
2021-02-09 03:00:00 3 11 Oeste 24 Sudoeste 0.8 894.4 -- 99
2021-02-09 02:00:00 2.8 14 Sudoeste 31 Sudoeste 0 894 -- 99
2021-02-09 01:00:00 3.1 26 Sudoeste 38 Oeste 0 893.7 -- 99
2021-02-09 00:00:00 4.5 17 Sur 36 Sudoeste 0 893.4 -- 83
2021-02-08 23:00:00 4.7 16 Oeste 45 Oeste 0 892.8 -- 79
2021-02-08 22:00:00 4.7 24 Oeste 48 Sudoeste 0 891.6 -- 82
2021-02-08 21:00:00 5 24 Oeste 42 Sudoeste 0.1 891.9 -- 87
2021-02-08 20:00:00 4.4 15 Oeste 32 Oeste 1.3 891.2 -- 97
2021-02-08 19:00:00 4.5 17 Oeste 37 Oeste 1 890.7 -- 94
2021-02-08 18:00:00 4 16 Oeste 40 Oeste 1.8 890 -- 94
2021-02-08 17:00:00 4.7 15 Oeste 45 Oeste 0.2 889.4 -- 79
2021-02-08 16:00:00 6.7 21 Oeste 48 Sudoeste 0 888.9 -- 57
2021-02-08 15:00:00 6.6 26 Oeste 53 Oeste 0 888.6 -- 57
2021-02-08 14:00:00 7.2 23 Oeste 46 Oeste 0.1 889.1 -- 58
2021-02-08 13:00:00 6 18 Sudoeste 39 Sudoeste 0 889.5 -- 67
2021-02-08 12:00:00 5 13 Sudoeste 32 Oeste 0 889.7 -- 94
2021-02-08 11:00:00 4.8 10 Sudoeste 39 Sudoeste 0 889.4 -- 88
2021-02-08 10:00:00 4.7 17 Oeste 38 Sudoeste 0 888.6 -- 79
2021-02-08 09:00:00 3.3 17 Oeste 46 Oeste 0.1 888.3 -- 99
2021-02-08 08:00:00 2.3 13 Sudoeste 19 Sudoeste 0.1 887.6 -- 99
2021-02-08 07:00:00 2.5 7 Sudoeste 17 Oeste 1.7 887.5 -- 99
2021-02-08 06:00:00 3 8 Sudoeste 17 Sudoeste 2.5 888.6 -- 99
2021-02-08 05:00:00 3 11 Sudoeste 26 Sudoeste 2.3 888.4 -- 99
2021-02-08 04:00:00 3.1 14 Sudoeste 29 Sudoeste 1.6 889.4 -- 99
2021-02-08 03:00:00 3.1 14 Sudoeste 30 Sudoeste 0.3 890.2 -- 99
2021-02-08 02:00:00 3 14 Sudoeste 27 Sudoeste 0.1 891 -- 99
2021-02-08 01:00:00 2.7 12 Sudoeste 27 Sudoeste 0 891.6 -- 99
2021-02-08 00:00:00 2.3 14 Sudoeste 30 Sudoeste 0 892.3 -- 99
2021-02-07 23:00:00 2.4 18 Sudoeste 30 Sudoeste 0 892.5 -- 99
2021-02-07 22:00:00 3.1 15 Sudoeste 28 Sudoeste 0 892.4 -- 99
2021-02-07 21:00:00 3.4 18 Sudoeste 28 Sudoeste 0 893 -- 99
2021-02-07 20:00:00 3.8 21 Sudoeste 36 Sudoeste 0 892.9 -- 81
2021-02-07 19:00:00 4.3 15 Sudoeste 27 Sudoeste 0 892.6 -- 69
2021-02-07 18:00:00 5.3 17 Sudoeste 35 Oeste 0 892.3 -- 53
2021-02-07 17:00:00 6.3 15 Sudoeste 34 Sudoeste 0 892.1 -- 49
2021-02-07 16:00:00 7 14 Oeste 29 Oeste 0 892.2 -- 50
2021-02-07 15:00:00 7.1 14 Sudoeste 27 Sudoeste 0 892.3 -- 49
2021-02-07 14:00:00 7.5 7 Sudoeste 15 Sur 0 892.8 -- 55
2021-02-07 13:00:00 6.8 4 Sudeste 14 Sudeste 0 893.4 -- 62
2021-02-07 12:00:00 5.4 4 Sudeste 15 Sudeste 0 893.9 -- 71
2021-02-07 11:00:00 3.7 6 Sudeste 12 Este 0 893.6 -- 85
2021-02-07 10:00:00 3.6 6 Sudeste 13 Sudeste 0 893.5 -- 87
2021-02-07 09:00:00 2 6 Sudeste 9 Sudeste 0 893.1 -- 99
2021-02-07 08:00:00 1.8 0 Calma -- -- 0 892.7 -- 99
2021-02-07 07:00:00 2.5 0 Calma 4 Sudoeste 0 892.4 -- 99
2021-02-07 06:00:00 3 0 Calma 11 Sur 0 892.4 -- 99
2021-02-07 05:00:00 3.1 6 Este 9 Sudeste 0 892.2 -- 99
2021-02-07 04:00:00 3.2 6 Sur 11 Sudoeste 0 892.3 -- 99
2021-02-07 03:00:00 3.2 5 Oeste 9 Oeste 0 892.2 -- 99
2021-02-07 02:00:00 3.7 4 Oeste 10 Nordeste 0 892.2 -- 97
2021-02-07 01:00:00 4.2 3 Nordeste 23 Nordeste 0 892.1 -- 88
2021-02-07 00:00:00 4.2 17 Nordeste 24 Este 0 892.1 -- 91
2021-02-06 23:00:00 4.3 14 Este 25 Este 0 891.5 -- 93
2021-02-06 22:00:00 5.1 8 Nordeste 22 Norte 0 891.1 -- 87
2021-02-06 21:00:00 4.7 6 Nordeste 18 Nordeste 0 890.5 -- 94
2021-02-06 20:00:00 5.5 5 Nordeste 9 Nordeste 0 890.4 -- 98
2021-02-06 19:00:00 5.7 6 Este 9 Este 0.2 889.7 -- 98
2021-02-06 18:00:00 5.9 0 Calma 6 Sudoeste 0.2 889.3 -- 95
2021-02-06 17:00:00 5.9 4 Sudeste 8 Sudeste 0.9 888.8 -- 97
2021-02-06 16:00:00 5.9 0 Calma 15 Norte 5.8 888.4 -- 93
2021-02-06 15:00:00 8.3 10 Sur 19 Sur 0 887.8 -- 85
2021-02-06 14:00:00 7.7 11 Sur 18 Sur 0 888.3 -- 91
2021-02-06 13:00:00 7.7 8 Sur 14 Sudeste 0 888.8 -- 99
2021-02-06 12:00:00 5.6 8 Sur 15 Sudeste 0.1 889.1 -- 99
2021-02-06 11:00:00 5.5 8 Sur 17 Sur 0.1 888.8 -- 99
2021-02-06 10:00:00 5.1 11 Sur 17 Sur 0 888.6 -- 99
2021-02-06 09:00:00 5 9 Sur 16 Sur 0 888.5 -- 99
2021-02-06 08:00:00 5.3 11 Sur 19 Sur 0.1 888.1 -- 99
2021-02-06 07:00:00 5.2 9 Sur 23 Sur 0.3 887.9 -- 99
2021-02-06 06:00:00 5.2 14 Sudoeste 26 Sur 0 888 -- 99
2021-02-06 05:00:00 5.5 10 Sudoeste 28 Sudoeste 0.1 887.8 -- 99
2021-02-06 04:00:00 6.1 12 Sur 21 Sur 0 888 -- 99
2021-02-06 03:00:00 6.4 8 Sur 14 Sur 0 888.2 -- 99
2021-02-06 02:00:00 6.4 7 Sudeste 12 Este 0 888.6 -- 99
2021-02-06 01:00:00 6.3 9 Este 15 Este 0.1 889.3 -- 99
2021-02-06 00:00:00 6.4 3 Sudeste 13 Noroeste 0 889.6 -- 99
2021-02-05 23:00:00 6.5 4 Norte 26 Sudoeste 5.4 889.9 -- 99
2021-02-05 22:00:00 8.3 9 Sur 28 Sur 2.6 890.1 -- 99
2021-02-05 21:00:00 9.6 11 Sudeste 18 Sudeste 0 889.4 -- 70
2021-02-05 20:00:00 9.8 5 Nordeste 12 Nordeste 0 889.1 -- 62
2021-02-05 19:00:00 10.5 3 Nordeste 9 Nordeste 0 888.7 -- 60
2021-02-05 18:00:00 11.4 5 Este 16 Sudeste 0 888.7 -- 58
2021-02-05 17:00:00 12.2 9 Este 16 Este 0 889.2 -- 53
2021-02-05 16:00:00 12.7 9 Este 18 Este 0 889.7 -- 51
2021-02-05 15:00:00 12.5 8 Este 21 Sudeste 0 890.3 -- 50
2021-02-05 14:00:00 11.8 12 Sudeste 24 Sudeste 0 891 -- 49
2021-02-05 13:00:00 11.6 12 Este 22 Este 0 891.6 -- 51
2021-02-05 12:00:00 11.7 14 Sudeste 24 Sudeste 0 892.8 -- 49
2021-02-05 11:00:00 11.6 9 Este 28 Nordeste 0 892.7 -- 49
2021-02-05 10:00:00 10.5 18 Nordeste 29 Nordeste 0 892.6 -- 55
2021-02-05 09:00:00 9.4 17 Nordeste 26 Nordeste 0 892.7 -- 62
2021-02-05 08:00:00 8.5 12 Nordeste 26 Norte 0 892.9 -- 69
2021-02-05 07:00:00 8.6 12 Nordeste 30 Nordeste 0 892.7 -- 71
2021-02-05 06:00:00 7.6 9 Nordeste 19 Nordeste 0 893.2 -- 76
2021-02-05 05:00:00 7.6 5 Norte 10 Norte 0.1 894.5 -- 79
2021-02-05 04:00:00 7.8 3 Nordeste 12 Norte 0 894.4 -- 81
2021-02-05 03:00:00 7.5 5 Este 19 Nordeste 0 895.2 -- 84
2021-02-05 02:00:00 7.6 8 Nordeste 18 Norte 0 895.1 -- 85
2021-02-05 01:00:00 7.2 6 Nordeste 14 Nordeste 0 896.2 -- 90
2021-02-05 00:00:00 6.9 5 Nordeste 13 Nordeste 0 897 -- 91
2021-02-04 23:00:00 6.8 4 Nordeste 8 Nordeste 0 896.7 -- 91
2021-02-04 22:00:00 7 4 Norte 6 Norte 0 896.6 -- 91
2021-02-04 21:00:00 7 3 Norte 6 Nordeste 0 896.5 -- 90
2021-02-04 20:00:00 7.8 0 Calma 8 Sudoeste 0 896.4 -- 88
2021-02-04 19:00:00 7.9 5 Sudoeste 17 Sudeste 0 896.2 -- 85
2021-02-04 18:00:00 8.2 6 Sur 19 Sur 0 895.8 -- 83
2021-02-04 17:00:00 8.4 9 Sur 25 Sudeste 0 895.4 -- 83
2021-02-04 16:00:00 9 12 Sur 19 Sur 0 895 -- 89
2021-02-04 15:00:00 8 8 Sudeste 15 Sudeste 0 895.4 -- 99
2021-02-04 14:00:00 7.9 4 Sudeste 23 Sudeste 0 895.8 -- 99
2021-02-04 13:00:00 7.9 9 Sudeste 18 Sudeste 0 896.5 -- 99
2021-02-04 12:00:00 7 10 Sudeste 16 Este 0 897.1 -- 99
2021-02-04 11:00:00 6.9 9 Este 15 Nordeste 0.1 897.2 -- 99
2021-02-04 10:00:00 6.7 8 Sudeste 10 Sudeste 0.1 897.6 -- 99
2021-02-04 09:00:00 6.2 6 Sudeste 10 Sudeste 0 897.6 -- 99
2021-02-04 08:00:00 6.1 5 Sur 12 Sur 0 897.6 -- 99
2021-02-04 07:00:00 6.3 6 Sur 14 Sur 0.1 897.8 -- 99
2021-02-04 06:00:00 6.4 9 Sur 13 Sudeste 0 897.6 -- 99
2021-02-04 05:00:00 6.8 6 Sur 15 Sur 0 898 -- 99
2021-02-04 04:00:00 6.9 12 Sudoeste 22 Sudoeste 0 898.2 -- 99
2021-02-04 03:00:00 7.2 15 Sudoeste 23 Sudoeste 0.2 898.7 -- 99
2021-02-04 02:00:00 7.5 10 Sudoeste 20 Sudoeste 0 898.8 -- 99
2021-02-04 01:00:00 7.7 9 Sudoeste 18 Sudoeste 0.1 899 -- 99
2021-02-04 00:00:00 7.8 9 Sur 17 Sudoeste 0.2 899.2 -- 99
2021-02-03 23:00:00 7.8 11 Sudoeste 20 Sudoeste 1.4 899.5 -- 99
2021-02-03 22:00:00 7.6 6 Sudoeste 13 Sur 1.6 899.3 -- 99
2021-02-03 21:00:00 7.4 4 Sudoeste 9 Sudoeste 1.2 899.3 -- 99
2021-02-03 20:00:00 7.7 6 Sur 26 Sur 0.4 899.6 -- 99
2021-02-03 19:00:00 7.3 6 Sudoeste 18 Sudeste 0.3 899.6 -- 99
2021-02-03 18:00:00 7.4 4 Sudoeste 20 Sur 0.3 899.5 -- 99
2021-02-03 17:00:00 7.4 9 Sudoeste 20 Sur 0 899.6 -- 99
2021-02-03 16:00:00 7.4 10 Sur 15 Sur 0 899.9 -- 99
2021-02-03 15:00:00 7 8 Sudoeste 19 Sudoeste 0.2 900.3 -- 99
2021-02-03 14:00:00 7.2 10 Sudoeste 21 Sur 0 900.4 -- 99
2021-02-03 13:00:00 6.8 11 Sudoeste 18 Sudoeste 0 901 -- 99
2021-02-03 12:00:00 6.2 10 Sudoeste 17 Sudoeste 0 901.7 -- 99
2021-02-03 11:00:00 5.8 9 Sudoeste 14 Sudoeste 0 901.7 -- 99
2021-02-03 10:00:00 5.6 8 Sudoeste 18 Sudoeste 0 901.5 -- 99
2021-02-03 09:00:00 5.5 8 Sudoeste 15 Sudoeste 0 901 -- 99
2021-02-03 08:00:00 5.4 10 Sudoeste 21 Sudoeste 0 900.6 -- 99
2021-02-03 07:00:00 5.5 13 Sudoeste 33 Sudoeste 0 900.1 -- 99
2021-02-03 06:00:00 5.6 19 Sudoeste 33 Sudoeste 0 900.3 -- 99
2021-02-03 05:00:00 5.4 15 Sudoeste 24 Sudoeste 0 900.3 -- 99
2021-02-03 04:00:00 5.3 14 Sudoeste 25 Sudoeste 0 900.7 -- 98
2021-02-03 03:00:00 5.6 15 Sudoeste 28 Sudoeste 0 901.1 -- 99
2021-02-03 02:00:00 5.4 14 Sudoeste 25 Sudoeste 0 901.2 -- 99
2021-02-03 01:00:00 5.5 13 Sudoeste 22 Sudoeste 0 901.4 -- 99
2021-02-03 00:00:00 5.8 15 Sudoeste 28 Sudoeste 0 901.4 -- 99
2021-02-02 23:00:00 6.8 16 Sudoeste 29 Sudoeste 0 901.6 -- 96
2021-02-02 22:00:00 6.8 18 Sudoeste 28 Sudoeste 0 901.9 -- 99
2021-02-02 21:00:00 7.4 14 Sudoeste 27 Sudoeste 0 901.9 -- 99
2021-02-02 20:00:00 7.7 18 Sudoeste 28 Sudoeste 0 902 -- 99
2021-02-02 19:00:00 7.9 18 Sudoeste 29 Sudoeste 0 901.9 -- 99
2021-02-02 18:00:00 8.2 9 Sudoeste 15 Sudoeste 0 901.8 -- 99
2021-02-02 17:00:00 8.1 6 Sudoeste 18 Sur 0 902 -- 99
2021-02-02 16:00:00 7.8 7 Sudoeste 33 Sudeste 0.1 902.1 -- 99
2021-02-02 15:00:00 7.6 6 Sudoeste 12 Sur 0 902.8 -- 99
2021-02-02 14:00:00 7.3 4 Noroeste 9 Noroeste 0 903.3 -- 99
2021-02-02 13:00:00 6.5 4 Noroeste 12 Nordeste 0 904 -- 99
2021-02-02 12:00:00 5.7 4 Noroeste 11 Noroeste 0 904.4 -- 99
2021-02-02 11:00:00 5.3 5 Noroeste 11 Noroeste 0 904.4 -- 99
2021-02-02 10:00:00 5 4 Este 6 Este 0 904.3 -- 99
2021-02-02 09:00:00 4.5 2 Sudeste 9 Este 0.1 904.2 -- 99
2021-02-02 08:00:00 4.3 6 Este 10 Este 0 903.7 -- 99
2021-02-02 07:00:00 4.2 4 Sudeste 10 Nordeste 0 903.5 -- 99
2021-02-02 06:00:00 4.7 7 Sudeste 12 Sudeste 0 903.7 -- 99
2021-02-02 05:00:00 4.5 9 Este 15 Este 0 903.6 -- 99
2021-02-02 04:00:00 4.7 8 Este 14 Este 0 903.6 -- 99
2021-02-02 03:00:00 5.3 6 Este 9 Este 0 903.5 -- 94
2021-02-02 02:00:00 6.1 5 Este 9 Este 0 903.4 -- 90
2021-02-02 01:00:00 9 5 Sudoeste 25 Oeste 0 903.4 -- 78
2021-02-02 00:00:00 8.4 8 Sur 15 Sur 0 903.5 -- 81
2021-02-01 23:00:00 7 8 Sudeste 14 Sur 0 903.5 -- 88
2021-02-01 22:00:00 7.4 7 Este 14 Este 0 903.3 -- 70
2021-02-01 21:00:00 9 6 Este 30 Oeste 0 903.2 -- 59
2021-02-01 20:00:00 9.1 13 Oeste 33 Sudoeste 0 902.7 0.9 58
2021-02-01 19:00:00 9 14 Sudoeste 30 Oeste 0 902.5 -- 56
2021-02-01 18:00:00 10.7 11 Sudoeste 24 Sudoeste 0 902.1 -- 49
2021-02-01 17:00:00 11.6 6 Oeste 36 Sudoeste 0 901.8 -- 47
2021-02-01 16:00:00 13.5 12 Sudoeste 30 Sudoeste 0 901.4 -- 44
2021-02-01 15:00:00 13.3 17 Oeste 42 Oeste 0 901.2 -- 43
2021-02-01 14:00:00 13.1 19 Oeste 44 Oeste 0 900.9 -- 46
2021-02-01 13:00:00 12.3 20 Oeste 43 Oeste 0 900.7 -- 49
2021-02-01 12:00:00 11.9 20 Oeste 44 Oeste 0 900.8 -- 52
2021-02-01 11:00:00 10.4 22 Sudoeste 52 Sudoeste 0 900.2 -- 55
2021-02-01 10:00:00 9.4 30 Sudoeste 52 Sudoeste 0 899.6 -- 56
2021-02-01 09:00:00 8 22 Sur 39 Sudoeste 0 899.3 -- 58
2021-02-01 08:00:00 8.2 14 Este 40 Noroeste 0 898.6 -- 52
2021-02-01 07:00:00 9.7 7 Oeste 46 Noroeste 0 897.6 -- 45
2021-02-01 06:00:00 9.3 18 Noroeste 64 Noroeste 0.1 896.7 -- 47
2021-02-01 05:00:00 8.3 28 Noroeste 73 Noroeste 0 896.7 -- 53
2021-02-01 04:00:00 8.1 27 Noroeste 67 Oeste 0 897.2 -- 53
2021-02-01 03:00:00 8.1 22 Oeste 56 Oeste 0 897.5 -- 54
2021-02-01 02:00:00 8.7 25 Oeste 75 Oeste 0 897.9 -- 53
2021-02-01 01:00:00 9.6 32 Oeste 66 Oeste 0 897.8 -- 51
2021-02-01 00:00:00 9.9 31 Oeste 66 Oeste 0 897.7 -- 53
2021-01-31 23:00:00 10.1 30 Oeste 69 Oeste 0 897.5 -- 53
2021-01-31 22:00:00 10.6 33 Oeste 72 Oeste 0 896.9 -- 51
2021-01-31 21:00:00 10.6 31 Oeste 72 Oeste 0 896.8 -- 49
2021-01-31 20:00:00 11.1 33 Oeste 64 Oeste 0.1 896.8 -- 47
2021-01-31 19:00:00 11.4 30 Oeste 60 Oeste 0 897.5 -- 53
2021-01-31 18:00:00 12.6 21 Oeste 56 Oeste 0 897.2 -- 46
2021-01-31 17:00:00 13.3 18 Oeste 50 Oeste 0 897.5 -- 46
2021-01-31 16:00:00 13.2 21 Oeste 57 Oeste 0 897.7 -- 48
2021-01-31 15:00:00 11.2 24 Sudoeste 44 Sudoeste 0 897.6 -- 78
2021-01-31 14:00:00 9.3 27 Sudoeste 48 Sudoeste 0 898.3 -- 93
2021-01-31 13:00:00 9 18 Sur 45 Sudoeste 0 899.1 -- 83
2021-01-31 12:00:00 9.9 17 Sudoeste 43 Sudoeste 0 899.2 -- 71
2021-01-31 11:00:00 9.1 24 Sudoeste 43 Sudoeste 0 899 -- 69
2021-01-31 10:00:00 7.7 25 Sudoeste 45 Sudoeste 0 898.5 -- 72
2021-01-31 09:00:00 6.1 15 Sur 37 Sudoeste 0 898.7 -- 73
2021-01-31 08:00:00 5.8 18 Sudoeste 40 Noroeste 0 897.9 -- 64
2021-01-31 07:00:00 6.5 17 Noroeste 41 Noroeste 0 897.3 -- 56
2021-01-31 06:00:00 5.9 11 Noroeste 33 Noroeste 0 897.4 -- 57
2021-01-31 05:00:00 5.3 5 Sur 33 Sudoeste 0 897.2 -- 59
2021-01-31 04:00:00 5.4 13 Sur 42 Oeste 0 897.3 -- 60
2021-01-31 03:00:00 5.2 17 Oeste 50 Oeste 0 897.6 -- 62
2021-01-31 02:00:00 5.8 15 Oeste 57 Noroeste 0 897.6 -- 59
2021-01-31 01:00:00 5.5 23 Oeste 68 Oeste 0 897.5 -- 60
2021-01-31 00:00:00 5.6 21 Oeste 60 Noroeste 0 897 -- 57